.
WxDataArchive / Data Records for 2007-07-04
2007-07-03 July 2007 2007-07-05

Data Records for Wednesday, 04 July 2007

Time	Temp	Chill	HIndex	Humid	Dewpt	 Wind 	HiWind	WindDir	Rain 	Barom 
-----	----	-----	------	-----	-----	------	------	-------	-----	----- 
00:00	67.3	67.3	67.3	61	53.4	0	1	248	0.00	29.939 
00:05	67.8	67.8	67.8	60	53.4	0	1	248	0.00	29.941 
00:10	68.3	68.3	68.3	59	53.4	0	1	248	0.00	29.942 
00:15	68.6	68.6	68.6	58	53.2	0	1	248	0.00	29.945 
00:20	68.8	68.8	68.8	58	53.4	0	1	248	0.00	29.945 
00:25	68.9	68.9	68.9	58	53.5	0	2	248	0.00	29.946 
00:30	69.1	69.1	69.1	58	53.7	0	1	248	0.00	29.945 
00:35	69.3	69.3	69.3	58	53.9	0	1	248	0.00	29.941 
00:40	69.1	69.1	69.1	58	53.7	0	1	248	0.00	29.939 
00:45	69.1	69.1	69.1	58	53.7	0	1	248	0.00	29.939 
00:50	68.9	68.9	68.9	58	53.5	0	1	248	0.00	29.938 
00:55	68.9	68.9	68.9	60	54.4	0	1	248	0.00	29.939 
01:00	68.9	68.9	68.9	59	54.0	0	1	248	0.00	29.937 
01:05	68.9	68.9	68.9	59	54.0	0	1	248	0.00	29.939 
01:10	69.1	69.1	69.1	59	54.2	0	1	248	0.00	29.933 
01:15	69.1	69.1	69.1	60	54.6	0	1	248	0.00	29.932 
01:20	69.1	69.1	69.1	61	55.1	0	1	248	0.00	29.930 
01:25	68.9	68.9	68.9	61	54.9	0	1	248	0.00	29.928 
01:30	68.6	68.6	68.6	62	55.0	0	1	248	0.00	29.920 
01:35	68.6	68.6	68.6	62	55.0	0	2	248	0.00	29.917 
01:40	68.6	68.6	68.6	62	55.0	0	2	248	0.00	29.915 
01:45	68.6	68.6	68.6	62	55.0	0	2	248	0.00	29.915 
01:50	68.8	68.8	68.8	61	54.8	0	3	248	0.00	29.916 
01:55	68.9	68.9	68.9	61	54.9	1	3	248	0.00	29.916 
02:00	69.1	69.1	69.1	60	54.6	0	3	248	0.00	29.915 
02:05	69.3	69.3	69.3	60	54.8	0	1	248	0.00	29.909 
02:10	69.4	69.4	69.4	60	54.9	0	2	248	0.00	29.908 
02:15	69.4	69.4	69.4	60	54.9	0	1	248	0.00	29.907 
02:20	69.4	69.4	69.4	61	55.4	0	1	248	0.00	29.905 
02:25	69.4	69.4	69.4	61	55.4	0	2	248	0.00	29.902 
02:30	69.4	69.4	69.4	61	55.4	0	1	248	0.00	29.897 
02:35	69.4	69.4	69.4	61	55.4	0	1	248	0.00	29.901 
02:40	69.4	69.4	69.4	62	55.8	0	1	248	0.00	29.899 
02:45	69.4	69.4	69.4	62	55.8	0	2	248	0.00	29.904 
02:50	69.4	69.4	69.4	62	55.8	0	3	248	0.00	29.904 
02:55	69.4	69.4	69.4	62	55.8	0	1	248	0.00	29.905 
03:00	69.4	69.4	69.4	62	55.8	1	3	248	0.00	29.905 
03:05	69.4	69.4	69.4	62	55.8	1	4	248	0.00	29.901 
03:10	69.4	69.4	69.4	62	55.8	0	2	248	0.00	29.898 
03:15	69.4	69.4	69.4	62	55.8	0	2	248	0.00	29.895 
03:20	69.4	69.4	69.4	63	56.2	1	3	248	0.00	29.894 
03:25	69.4	69.4	69.4	63	56.2	1	4	248	0.00	29.891 
03:30	69.6	69.6	69.6	62	56.0	1	3	248	0.00	29.888 
03:35	69.6	69.6	69.6	63	56.4	1	3	248	0.00	29.887 
03:40	69.8	69.8	69.8	63	56.6	1	4	248	0.00	29.883 
03:45	69.8	69.8	69.8	63	56.6	1	3	248	0.00	29.881 
03:50	69.8	69.8	69.8	64	57.1	1	4	248	0.00	29.878 
03:55	69.8	69.8	69.8	64	57.1	1	2	248	0.00	29.876 
04:00	69.8	69.8	69.8	64	57.1	2	5	248	0.00	29.874 
04:05	69.8	69.8	69.8	64	57.1	2	4	248	0.00	29.873 
04:10	69.8	69.8	69.8	65	57.5	1	3	270	0.00	29.875 
04:15	69.8	69.8	69.8	65	57.5	1	3	270	0.00	29.871 
04:20	69.8	69.8	69.8	65	57.5	2	4	248	0.00	29.869 
04:25	69.6	69.6	69.6	67	58.1	1	3	248	0.00	29.870 
04:30	69.3	69.3	69.3	69	58.7	2	5	248	0.00	29.874 
04:35	68.8	68.8	68.8	72	59.4	2	4	248	0.00	29.871 
04:40	68.1	68.1	68.1	74	59.5	2	7	248	0.00	29.863 
04:45	67.6	67.6	67.6	76	59.8	1	4	248	0.00	29.859 
04:50	67.1	67.1	67.1	79	60.4	1	2	270	0.01	29.864 
04:55	66.6	66.6	66.6	81	60.6	0	2	270	0.00	29.859 
05:00	66.1	66.1	66.1	83	60.8	0	1	270	0.01	29.857 
05:05	65.8	65.8	65.8	84	60.8	0	1	270	0.00	29.861 
05:10	65.5	65.5	65.5	85	60.9	0	1	270	0.00	29.868 
05:15	65.3	65.3	65.3	87	61.3	0	1	270	0.01	29.877 
05:20	65.2	65.2	65.2	88	61.6	0	0	---	0.00	29.865 
05:25	65.2	65.2	65.2	88	61.6	0	1	270	0.00	29.856 
05:30	65.0	65.0	65.0	88	61.4	0	1	270	0.00	29.863 
05:35	65.0	65.0	65.0	88	61.4	0	0	---	0.00	29.867 
05:40	65.0	65.0	65.0	89	61.7	0	0	---	0.00	29.872 
05:45	64.8	64.8	64.8	89	61.5	0	0	---	0.00	29.874 
05:50	64.8	64.8	64.8	89	61.5	0	1	270	0.00	29.872 
05:55	64.8	64.8	64.8	89	61.5	0	0	---	0.00	29.875 
06:00	64.8	64.8	64.8	89	61.5	0	1	270	0.00	29.873 
06:05	64.8	64.8	64.8	89	61.5	0	1	270	0.00	29.864 
06:10	65.0	65.0	65.0	88	61.4	1	3	248	0.00	29.862 
06:15	65.2	65.2	65.2	87	61.2	0	1	248	0.00	29.863 
06:20	65.3	65.3	65.3	87	61.3	0	1	248	0.00	29.863 
06:25	65.5	65.5	65.5	87	61.5	0	1	248	0.00	29.863 
06:30	65.5	65.5	65.5	86	61.2	0	2	248	0.00	29.864 
06:35	65.6	65.6	65.6	86	61.3	0	2	248	0.00	29.864 
06:40	65.8	65.8	65.8	85	61.2	0	2	248	0.00	29.864 
06:45	66.1	66.1	66.1	85	61.5	1	4	248	0.00	29.864 
06:50	66.3	66.3	66.3	84	61.3	1	3	248	0.00	29.866 
06:55	66.4	66.4	66.4	83	61.1	1	3	248	0.00	29.870 
07:00	66.6	66.6	66.6	83	61.3	1	4	248	0.00	29.872 
07:05	66.8	66.8	66.8	83	61.5	1	3	225	0.00	29.875 
07:10	67.1	67.1	67.1	82	61.4	0	2	225	0.00	29.877 
07:15	67.3	67.3	67.3	81	61.3	1	3	248	0.00	29.878 
07:20	67.6	67.6	67.6	80	61.2	1	2	270	0.00	29.877 
07:25	67.8	67.8	67.8	80	61.4	1	3	248	0.00	29.874 
07:30	68.1	68.1	68.1	79	61.3	1	2	248	0.00	29.874 
07:35	68.4	68.4	68.4	78	61.3	1	4	225	0.00	29.870 
07:40	68.6	68.6	68.6	77	61.1	0	2	225	0.00	29.867 
07:45	68.8	68.8	68.8	77	61.3	1	3	248	0.00	29.864 
07:50	68.9	68.9	68.9	77	61.4	1	4	248	0.00	29.862 
07:55	68.9	68.9	68.9	76	61.0	1	3	248	0.00	29.863 
08:00	69.1	69.1	69.1	76	61.2	1	2	248	0.00	29.865 
08:05	69.3	69.3	69.3	75	61.0	1	2	248	0.00	29.871 
08:10	69.4	69.4	69.4	75	61.1	1	3	248	0.00	29.871 
08:15	69.6	69.6	69.6	74	60.9	1	3	248	0.00	29.869 
08:20	69.8	69.8	69.8	74	61.1	1	3	225	0.00	29.869 
08:25	69.9	69.9	69.9	73	60.8	1	3	248	0.00	29.871 
08:30	70.1	70.1	70.1	73	61.0	1	2	248	0.00	29.868 
08:35	70.3	70.3	70.3	73	61.2	0	3	248	0.00	29.867 
08:40	70.4	70.4	70.4	72	60.9	1	3	248	0.00	29.868 
08:45	70.8	70.8	70.8	71	60.9	1	3	248	0.00	29.866 
08:50	70.9	70.9	70.9	70	60.6	1	4	270	0.00	29.865 
08:55	71.3	71.3	71.3	71	61.4	1	3	270	0.00	29.865 
09:00	71.5	71.5	71.5	70	61.2	1	3	270	0.00	29.864 
09:05	71.8	71.8	71.8	70	61.5	0	2	248	0.00	29.865 
09:10	72.0	72.0	72.0	70	61.7	0	2	248	0.00	29.852 
09:15	72.3	72.3	72.3	69	61.5	0	2	248	0.00	29.861 
09:20	72.3	72.3	72.3	69	61.5	2	4	248	0.00	29.877 
09:25	72.5	72.5	72.5	69	61.7	1	3	248	0.00	29.881 
09:30	72.7	72.7	72.7	69	61.9	1	4	248	0.00	29.878 
09:35	73.0	73.0	73.0	68	61.8	2	4	248	0.00	29.878 
09:40	73.2	73.2	73.2	67	61.6	2	5	270	0.00	29.880 
09:45	73.5	73.5	73.5	68	62.3	2	4	248	0.00	29.878 
09:50	73.7	73.7	73.7	67	62.0	2	4	270	0.00	29.878 
09:55	73.7	73.7	73.7	66	61.6	2	4	270	0.00	29.878 
10:00	73.9	73.9	73.9	66	61.8	1	3	270	0.00	29.880 
10:05	73.9	73.9	73.9	65	61.4	3	6	270	0.00	29.879 
10:10	74.0	74.0	74.0	65	61.5	2	4	248	0.00	29.876 
10:15	74.4	74.4	74.4	65	61.8	1	3	270	0.00	29.877 
10:20	74.6	74.6	74.6	65	62.0	2	4	270	0.00	29.879 
10:25	74.9	74.9	74.9	65	62.3	3	6	248	0.00	29.878 
10:30	75.1	75.1	77.1	65	62.5	2	4	270	0.00	29.879 
10:35	75.3	75.3	77.2	66	63.1	2	5	270	0.00	29.878 
10:40	75.8	75.8	77.7	65	63.2	2	6	248	0.00	29.875 
10:45	76.1	76.1	78.0	63	62.6	2	4	270	0.00	29.877 
10:50	76.0	76.0	77.9	64	62.9	2	6	270	0.00	29.879 
10:55	76.1	76.1	78.0	63	62.6	2	5	270	0.00	29.880 
11:00	76.3	76.3	78.2	64	63.2	2	5	270	0.00	29.879 
11:05	76.8	76.8	78.6	63	63.2	2	5	270	0.00	29.878 
11:10	77.6	77.6	79.4	62	63.5	2	6	315	0.00	29.878 
11:15	78.1	78.1	79.8	61	63.5	2	3	315	0.00	29.879 
11:20	78.8	78.8	80.4	59	63.2	3	5	270	0.00	29.878 
11:25	79.2	79.2	80.8	59	63.6	3	5	270	0.00	29.879 
11:30	79.4	79.4	80.9	58	63.3	3	7	270	0.00	29.877 
11:35	78.8	78.8	80.4	59	63.2	3	6	270	0.00	29.878 
11:40	79.4	79.4	81.0	59	63.8	2	6	315	0.00	29.874 
11:45	79.2	79.2	80.7	58	63.1	3	5	270	0.00	29.875 
11:50	78.6	78.6	80.3	60	63.5	3	6	270	0.00	29.877 
11:55	77.9	77.9	79.6	61	63.3	4	6	270	0.00	29.877 
12:00	77.9	77.9	79.6	62	63.8	3	5	270	0.00	29.874 
12:05	78.8	78.8	80.5	60	63.7	3	6	270	0.00	29.874 
12:10	78.6	78.6	80.3	61	64.0	3	5	270	0.00	29.872 
12:15	78.3	78.3	80.1	62	64.2	3	6	270	0.00	29.872 
12:20	78.8	78.8	80.6	62	64.7	2	5	315	0.00	29.869 
12:25	79.2	79.2	81.1	62	65.0	1	4	315	0.00	29.871 
12:30	79.2	79.2	80.9	60	64.1	3	6	270	0.00	29.868 
12:35	79.0	79.0	80.8	61	64.4	3	5	270	0.00	29.870 
12:40	79.4	79.4	81.1	60	64.3	3	5	270	0.00	29.865 
12:45	79.2	79.2	80.9	60	64.1	2	5	315	0.00	29.863 
12:50	79.6	79.6	81.3	60	64.5	3	5	270	0.00	29.863 
12:55	79.6	79.6	81.3	59	64.0	2	5	248	0.00	29.860 
13:00	79.9	79.9	81.7	60	64.7	2	5	248	0.00	29.859 
13:05	80.1	80.1	81.9	60	64.9	1	5	315	0.00	29.856 
13:10	80.1	80.1	81.8	59	64.5	2	4	270	0.00	29.858 
13:15	79.9	79.9	81.8	61	65.2	3	6	338	0.00	29.856 
13:20	80.9	80.9	83.1	61	66.2	2	4	270	0.00	29.854 
13:25	80.7	80.7	82.5	59	65.0	2	4	315	0.00	29.853 
13:30	80.5	80.5	82.4	60	65.3	2	5	315	0.00	29.848 
13:35	80.9	80.9	82.9	60	65.7	2	4	315	0.00	29.851 
13:40	80.7	80.7	82.7	60	65.5	3	7	315	0.00	29.851 
13:45	80.5	80.5	82.5	61	65.8	1	4	270	0.00	29.849 
13:50	79.9	79.9	81.8	61	65.2	3	7	292	0.00	29.852 
13:55	80.3	80.3	82.3	61	65.6	2	5	270	0.00	29.853 
14:00	80.7	80.7	82.8	61	66.0	2	5	270	0.00	29.852 
14:05	80.5	80.5	82.5	61	65.8	2	4	292	0.00	29.852 
14:10	80.1	80.1	82.0	61	65.4	1	4	270	0.00	29.855 
14:15	80.3	80.3	82.4	62	66.1	1	4	248	0.00	29.856 
14:20	80.1	80.1	82.3	63	66.3	1	4	248	0.00	29.856 
14:25	79.6	79.6	81.5	62	65.4	2	4	338	0.00	29.856 
14:30	79.8	79.8	82.0	64	66.5	1	2	292	0.00	29.856 
14:35	79.8	79.8	81.9	63	66.1	1	2	338	0.00	29.858 
14:40	79.8	79.8	81.8	62	65.6	1	4	315	0.00	29.859 
14:45	79.0	79.0	81.0	64	65.8	1	4	315	0.00	29.859 
14:50	78.5	78.5	80.4	65	65.7	1	3	315	0.00	29.860 
14:55	78.3	78.3	80.2	65	65.5	1	3	315	0.00	29.862 
15:00	78.3	78.3	80.3	68	66.8	0	4	292	0.00	29.862 
15:05	78.5	78.5	80.5	66	66.2	1	3	292	0.00	29.861 
15:10	78.8	78.8	80.9	66	66.5	0	2	292	0.00	29.860 
15:15	79.4	79.4	81.6	66	67.0	1	4	292	0.00	29.859 
15:20	79.4	79.4	81.5	64	66.1	1	2	292	0.00	29.859 
15:25	79.4	79.4	81.5	64	66.1	1	3	292	0.00	29.857 
15:30	79.6	79.6	81.8	65	66.8	0	2	270	0.00	29.850 
15:35	79.6	79.6	81.8	65	66.8	1	4	315	0.00	29.849 
15:40	79.9	79.9	82.0	63	66.2	1	3	315	0.00	29.843 
15:45	80.3	80.3	82.5	63	66.5	2	3	315	0.00	29.842 
15:50	80.9	80.9	83.2	62	66.6	2	3	270	0.00	29.842 
15:55	81.6	81.6	84.0	61	66.8	1	3	292	0.00	29.842 
16:00	81.6	81.6	83.9	60	66.3	2	5	315	0.00	29.840 
16:05	81.1	81.1	83.2	60	65.9	1	4	315	0.00	29.845 
16:10	80.7	80.7	82.9	62	66.4	1	3	292	0.00	29.845 
16:15	80.9	80.9	83.2	62	66.6	1	3	270	0.00	29.843 
16:20	81.2	81.2	83.5	61	66.4	1	5	270	0.00	29.842 
16:25	82.0	82.0	84.2	59	66.2	2	4	270	0.00	29.836 
16:30	82.4	82.4	85.0	60	67.1	2	4	270	0.00	29.835 
16:35	82.0	82.0	84.2	59	66.2	2	5	270	0.00	29.835 
16:40	81.4	81.4	83.6	60	66.2	2	4	315	0.00	29.831 
16:45	81.4	81.4	83.8	61	66.6	1	3	315	0.00	29.832 
16:50	81.6	81.6	84.0	61	66.8	1	4	338	0.00	29.829 
16:55	81.8	81.8	84.1	60	66.5	2	5	315	0.00	29.830 
17:00	82.0	82.0	84.1	58	65.7	1	3	315	0.00	29.828 
17:05	82.2	82.2	84.5	59	66.4	1	3	315	0.00	29.830 
17:10	82.0	82.0	84.1	58	65.7	2	5	270	0.00	29.832 
17:15	81.8	81.8	84.0	59	66.0	1	4	292	0.00	29.831 
17:20	82.0	82.0	84.4	60	66.7	1	3	292	0.00	29.831 
17:25	82.2	82.2	84.3	58	65.9	1	3	292	0.00	29.830 
17:30	82.2	82.2	84.3	58	65.9	1	2	315	0.00	29.829 
17:35	82.0	82.0	84.1	58	65.7	2	4	315	0.00	29.828 
17:40	81.8	81.8	83.8	58	65.6	1	3	270	0.00	29.829 
17:45	81.8	81.8	84.0	59	66.0	1	3	315	0.00	29.828 
17:50	81.6	81.6	83.7	59	65.9	1	3	315	0.00	29.827 
17:55	81.6	81.6	83.7	59	65.9	1	4	248	0.00	29.827 
18:00	81.6	81.6	83.5	58	65.4	1	3	315	0.00	29.825 
18:05	81.4	81.4	83.4	59	65.7	0	2	315	0.00	29.825 
18:10	81.2	81.2	83.2	59	65.5	1	2	315	0.00	29.827 
18:15	81.2	81.2	83.2	59	65.5	1	3	315	0.00	29.826 
18:20	81.4	81.4	83.4	59	65.7	1	3	270	0.00	29.826 
18:25	81.6	81.6	83.5	58	65.4	1	2	248	0.00	29.828 
18:30	81.6	81.6	83.5	58	65.4	1	3	270	0.00	29.828 
18:35	81.6	81.6	83.7	59	65.9	1	3	270	0.00	29.828 
18:40	81.4	81.4	83.4	59	65.7	0	3	270	0.00	29.828 
18:45	81.4	81.4	83.3	58	65.2	1	2	248	0.00	29.828 
18:50	81.2	81.2	83.2	59	65.5	1	3	248	0.00	29.830 
18:55	81.1	81.1	83.0	59	65.4	1	2	315	0.00	29.832 
19:00	80.7	80.7	82.7	60	65.5	1	3	315	0.00	29.833 
19:05	80.3	80.3	82.2	60	65.1	0	1	315	0.00	29.833 
19:10	80.3	80.3	82.3	61	65.6	0	1	315	0.00	29.834 
19:15	80.5	80.5	82.5	61	65.8	0	1	315	0.00	29.834 
19:20	80.5	80.5	82.5	61	65.8	0	1	315	0.00	29.832 
19:25	80.5	80.5	82.7	62	66.3	0	2	315	0.00	29.836 
19:30	80.5	80.5	82.5	61	65.8	0	2	315	0.00	29.837 
19:35	80.3	80.3	82.4	62	66.1	0	1	315	0.00	29.838 
19:40	80.3	80.3	82.4	62	66.1	0	2	292	0.00	29.835 
19:45	80.1	80.1	82.2	62	65.9	0	1	292	0.00	29.832 
19:50	79.9	79.9	82.0	63	66.2	0	1	292	0.00	29.834 
19:55	79.6	79.6	81.6	63	65.9	0	0	---	0.00	29.835 
20:00	79.4	79.4	81.5	64	66.1	0	0	---	0.00	29.839 
20:05	79.0	79.0	81.0	64	65.8	0	0	---	0.00	29.838 
20:10	78.8	78.8	80.8	65	66.0	0	0	---	0.00	29.841 
20:15	78.6	78.6	80.6	66	66.3	0	0	---	0.00	29.841 
20:20	78.3	78.3	80.2	66	66.0	0	1	292	0.00	29.841 
20:25	78.1	78.1	80.0	67	66.2	0	0	---	0.00	29.844 
20:30	77.9	77.9	79.8	68	66.5	0	0	---	0.00	29.843 
20:35	77.6	77.6	79.5	68	66.2	0	0	---	0.00	29.842 
20:40	77.2	77.2	79.0	69	66.2	0	0	---	0.00	29.846 
20:45	76.8	76.8	78.6	69	65.8	0	0	---	0.00	29.846 
20:50	76.5	76.5	78.2	70	66.0	0	0	---	0.00	29.844 
20:55	76.1	76.1	77.7	71	66.0	0	0	---	0.00	29.845 
21:00	75.8	75.8	77.3	72	66.1	0	0	---	0.00	29.846 
21:05	75.4	75.4	76.8	73	66.1	0	0	---	0.00	29.849 
21:10	75.1	75.1	76.5	73	65.8	0	0	---	0.00	29.848 
21:15	74.9	74.9	74.9	74	66.0	0	0	---	0.00	29.851 
21:20	74.7	74.7	74.7	75	66.2	0	0	---	0.00	29.853 
21:25	74.4	74.4	74.4	76	66.3	0	0	---	0.00	29.860 
21:30	74.2	74.2	74.2	76	66.1	0	0	---	0.00	29.859 
21:35	73.9	73.9	73.9	77	66.2	0	0	---	0.00	29.861 
21:40	73.7	73.7	73.7	77	66.0	0	0	---	0.00	29.859 
21:45	73.5	73.5	73.5	78	66.2	0	0	---	0.00	29.860 
21:50	73.3	73.3	73.3	79	66.4	0	0	---	0.00	29.861 
21:55	73.2	73.2	73.2	79	66.3	0	0	---	0.00	29.861 
22:00	73.0	73.0	73.0	80	66.5	0	0	---	0.00	29.862 
22:05	72.8	72.8	72.8	81	66.6	0	0	---	0.00	29.860 
22:10	72.7	72.7	72.7	81	66.5	0	0	---	0.00	29.859 
22:15	72.5	72.5	72.5	81	66.3	0	0	---	0.00	29.859 
22:20	72.3	72.3	72.3	82	66.5	0	0	---	0.00	29.859 
22:25	72.1	72.1	72.1	83	66.6	0	0	---	0.00	29.858 
22:30	72.1	72.1	72.1	83	66.6	0	0	---	0.00	29.854 
22:35	72.0	72.0	72.0	83	66.5	0	0	---	0.00	29.851 
22:40	71.8	71.8	71.8	84	66.7	0	0	---	0.00	29.854 
22:45	71.6	71.6	71.6	84	66.5	0	0	---	0.00	29.851 
22:50	71.6	71.6	71.6	85	66.8	0	0	---	0.00	29.849 
22:55	71.5	71.5	71.5	85	66.7	0	0	---	0.00	29.846 
23:00	71.3	71.3	71.3	86	66.9	0	0	---	0.00	29.846 
23:05	71.3	71.3	71.3	86	66.9	0	0	---	0.00	29.844 
23:10	71.3	71.3	71.3	86	66.9	0	0	---	0.00	29.845 
23:15	71.1	71.1	71.1	86	66.7	0	0	---	0.00	29.846 
23:20	71.1	71.1	71.1	87	67.0	0	0	---	0.00	29.845 
23:25	71.3	71.3	71.3	87	67.2	0	0	---	0.00	29.844 
23:30	71.3	71.3	71.3	87	67.2	0	0	---	0.00	29.844 
23:35	71.3	71.3	71.3	87	67.2	0	0	---	0.00	29.843 
23:40	71.3	71.3	71.3	87	67.2	0	0	---	0.00	29.841 
23:45	71.3	71.3	71.3	87	67.2	0	0	---	0.00	29.842 
23:50	71.3	71.3	71.3	87	67.2	0	0	---	0.00	29.843 
23:55	71.3	71.3	71.3	87	67.2	0	0	---	0.00	29.843 

CoCoRaHS
IN-AL-39
A2 Web Hosting
Creative Commons License
GoDaddy
Look for:

loaded 2017-10-18 07:29:15 • last modified 2010-11-18 10:43:29
Privacy PolicyDisclaimer
• wx.awcolley.com is powered by PmWiki v.2002016 •
• all content (unless otherwise noted) © 2017 A W Colley